Kitty C — 2EIQ6 — position and weather

sailwx.info

Track history (hours):
 
Tides and Currents Weather Stations Pressure Air Temp Water Temp Dewpoint Dewpoint Depression Visibility Wind Speed Wind Dir Waves Ship Positions

Kitty C

Last reported at 2014-Nov-01 10:32 UTC. Time now 2014-Nov-01 11:20 UTC.
Position N 41°04' E 001°18'.

Length 106 m; draft 4.2 m.

Type: Cargo ship. MMSI: 235085464.

Date/timePositionNaut miles runAvg speedWind from/ knotsBaromVisibWave heightAir tempDewpointWater temp
2014-Nov-01 10:32N 41°04' E 001°18'48 9.5
2014-Nov-01 05:29N 41°13' E 002°21'9 7.2
2014-Nov-01 04:18N 41°17' E 002°31'2110.4
2014-Nov-01 02:15N 41°24' E 002°58'2010.9
2014-Nov-01 00:28N 41°31' E 003°22'1011.3
2014-Oct-31 23:32N 41°35' E 003°35'1110.8
2014-Oct-31 22:33N 41°38' E 003°49'1111.2
2014-Oct-31 21:33N 41°42' E 004°03'1010.2
2014-Oct-31 20:33N 41°46' E 004°15'10 9.5
2014-Oct-31 19:32N 41°49' E 004°28'1010.0
2014-Oct-31 18:31N 41°53' E 004°40'10 9.9
2014-Oct-31 17:31N 41°56' E 004°53'1110.4
2014-Oct-31 16:26N 42°00' E 005°07'1210.7
2014-Oct-31 15:20N 42°04' E 005°22'2211.1
2014-Oct-31 13:20N 42°12' E 005°50'1010.9
2014-Oct-31 12:27N 42°15' E 006°02'1410.6
2014-Oct-31 11:05N 42°20' E 006°20'14610.8
2014-Oct-30 21:28N 43°08' E 009°29'1111.0
2014-Oct-30 20:30N 43°13' E 009°42'1111.2
2014-Oct-30 19:31N 43°19' E 009°55'1110.7
2014-Oct-30 18:32N 43°25' E 010°06'1010.1
2014-Oct-30 17:33N 43°32' E 010°16'3 3.1
2014-Oct-30 16:31N 43°34' E 010°19'0 0.0
2014-Oct-30 15:31N 43°34' E 010°19'0 0.0
2014-Oct-30 14:28N 43°34' E 010°19'0 0.0
2014-Oct-30 13:31N 43°34' E 010°19'0 0.0
2014-Oct-30 12:31N 43°34' E 010°19'0 0.0
2014-Oct-30 11:31N 43°34' E 010°19'0 0.0
2014-Oct-30 10:31N 43°34' E 010°19'0 0.0
2014-Oct-30 09:25N 43°34' E 010°19'0 0.0
2014-Oct-30 08:31N 43°34' E 010°19'0 0.0
2014-Oct-30 07:31N 43°34' E 010°19'0 0.0
2014-Oct-30 06:31N 43°34' E 010°19'0 0.0
2014-Oct-30 05:31N 43°34' E 010°19'0 0.0
2014-Oct-30 04:28N 43°34' E 010°19'0 0.0
2014-Oct-30 03:31N 43°34' E 010°19'0 0.0
2014-Oct-30 02:31N 43°34' E 010°19'0 0.0
2014-Oct-30 01:31N 43°34' E 010°19'0 0.0
2014-Oct-30 00:31N 43°34' E 010°19'0 0.0
2014-Oct-29 23:31N 43°34' E 010°19'0 0.0
2014-Oct-29 22:31N 43°34' E 010°19'0 0.0
2014-Oct-29 21:31N 43°34' E 010°19'0 0.0
2014-Oct-29 20:25N 43°34' E 010°19'0 0.0
2014-Oct-29 19:31N 43°34' E 010°19'0 0.0
2014-Oct-29 18:31N 43°34' E 010°19'0 0.0
2014-Oct-29 17:31N 43°34' E 010°19'0 0.0
2014-Oct-29 16:28N 43°34' E 010°19'0 0.0
2014-Oct-29 15:31N 43°34' E 010°19'0 0.0
2014-Oct-29 14:28N 43°34' E 010°19'0 0.0
2014-Oct-29 13:31N 43°34' E 010°19'0 0.0
2014-Oct-29 12:28N 43°34' E 010°19'0 0.0
2014-Oct-29 11:33N 43°34' E 010°19'0 0.0
2014-Oct-29 10:33N 43°34' E 010°19'0 0.0
2014-Oct-29 09:33N 43°34' E 010°19'0 0.0
2014-Oct-29 08:33N 43°34' E 010°19'0 0.0
2014-Oct-29 07:33N 43°34' E 010°19'0 0.0
2014-Oct-29 06:33N 43°34' E 010°19'0 0.0
2014-Oct-29 05:33N 43°34' E 010°19'4 3.8
2014-Oct-29 04:33N 43°31' E 010°16'2 1.8
2014-Oct-29 03:33N 43°30' E 010°14'7 6.8
2014-Oct-29 02:33N 43°26' E 010°07'10 9.7
2014-Oct-29 01:33N 43°20' E 009°57'10 9.8
2014-Oct-29 00:33N 43°15' E 009°45'367 9.9
2014-Oct-27 11:33N 39°18' E 003°32'1110.7
2014-Oct-27 10:33N 39°12' E 003°21'9 8.7
2014-Oct-27 09:33N 39°07' E 003°11'10 9.8
2014-Oct-27 08:33N 39°01' E 003°01'10 9.8
2014-Oct-27 07:33N 38°55' E 002°51'10 9.8
2014-Oct-27 06:33N 38°49' E 002°41'2010.2
2014-Oct-27 04:33N 38°38' E 002°19'3010.1
2014-Oct-27 01:33N 38°22' E 001°46'1010.2
2014-Oct-27 00:33N 38°17' E 001°35'1010.3
2014-Oct-26 23:33N 38°11' E 001°24'1110.6
2014-Oct-26 22:33N 38°06' E 001°13'1110.5
2014-Oct-26 21:33N 37°60' E 001°01'1110.4
2014-Oct-26 20:30N 37°54' E 000°50'30 9.9
2014-Oct-26 17:31N 37°38' E 000°18'9 9.7
2014-Oct-26 16:33N 37°33' E 000°08'10 9.6
2014-Oct-26 15:32N 37°28' W 000°02'9 9.6
2014-Oct-26 14:33N 37°23' W 000°12'14 9.6
2014-Oct-26 13:06N 37°16' W 000°27'5 9.4
2014-Oct-26 12:31N 37°13' W 000°33'10 9.5
2014-Oct-26 11:28N 37°07' W 000°43'231 9.9
2014-Oct-25 12:16N 35°55' W 005°16'3 3.7
2014-Oct-25 11:33N 35°54' W 005°19'0 0.0
2014-Oct-25 10:33N 35°54' W 005°19'0 0.0
2014-Oct-25 09:33N 35°54' W 005°19'0 0.0
2014-Oct-25 08:33N 35°54' W 005°19'0 0.0
2014-Oct-25 07:33N 35°54' W 005°19'0 0.0
2014-Oct-25 06:33N 35°54' W 005°19'1 0.7
2014-Oct-25 05:33N 35°54' W 005°19'2 2.0
2014-Oct-25 04:34N 35°56' W 005°20'101 8.4
2014-Oct-24 16:30N 36°09' W 007°25'63 8.6
2014-Oct-24 09:05N 36°25' W 008°41'5 8.8
2014-Oct-24 08:31N 36°27' W 008°47'9 8.8
2014-Oct-24 07:33N 36°29' W 008°57'12 8.9
2014-Oct-24 06:15N 36°32' W 009°11'25 9.3
2014-Oct-24 03:33N 36°49' W 009°34'10 9.4
2014-Oct-24 02:32N 36°58' W 009°37'4 4.1
2014-Oct-24 01:33N 37°02' W 009°38'1 0.5
2014-Oct-24 00:33N 37°02' W 009°38'1 0.5
2014-Oct-23 23:31N 37°03' W 009°38'1 0.6
2014-Oct-23 22:18N 37°03' W 009°37'5 4.8
2014-Oct-23 21:15N 37°08' W 009°39'710.1
2014-Oct-23 20:33N 37°15' W 009°41'1210.1
2014-Oct-23 19:24N 37°27' W 009°44'910.2
2014-Oct-23 18:33N 37°35' W 009°46'1010.5
2014-Oct-23 17:33N 37°45' W 009°49'1010.4
2014-Oct-23 16:33N 37°55' W 009°53'1010.2
2014-Oct-23 15:33N 38°05' W 009°55'1110.0
2014-Oct-23 14:26N 38°16' W 009°58'1910.0
2014-Oct-23 12:33N 38°35' W 010°03'1110.3
2014-Oct-23 11:32N 38°45' W 010°05'1210.2
2014-Oct-23 10:24N 38°57' W 010°04'1310.4
2014-Oct-23 09:06N 39°10' W 009°60'610.4
2014-Oct-23 08:33N 39°15' W 009°58'  
Track history (hours):
 
Tides and Currents Weather Stations Pressure Air Temp Water Temp Dewpoint Dewpoint Depression Visibility Wind Speed Wind Dir Waves Ship Positions

Kitty C

Last reported at 2014-Nov-01 10:32 UTC. Time now 2014-Nov-01 11:20 UTC.
Position N 41°04' E 001°18'.

Length 106 m; draft 4.2 m.

Type: Cargo ship. MMSI: 235085464.

Date/timePositionNaut miles runAvg speedWind from/ knotsBaromVisibWave heightAir tempDewpointWater temp
2014-Nov-01 10:32N 41°04' E 001°18'48 9.5
2014-Nov-01 05:29N 41°13' E 002°21'9 7.2
2014-Nov-01 04:18N 41°17' E 002°31'2110.4
2014-Nov-01 02:15N 41°24' E 002°58'2010.9
2014-Nov-01 00:28N 41°31' E 003°22'1011.3
2014-Oct-31 23:32N 41°35' E 003°35'1110.8
2014-Oct-31 22:33N 41°38' E 003°49'1111.2
2014-Oct-31 21:33N 41°42' E 004°03'1010.2
2014-Oct-31 20:33N 41°46' E 004°15'10 9.5
2014-Oct-31 19:32N 41°49' E 004°28'1010.0
2014-Oct-31 18:31N 41°53' E 004°40'10 9.9
2014-Oct-31 17:31N 41°56' E 004°53'1110.4
2014-Oct-31 16:26N 42°00' E 005°07'1210.7
2014-Oct-31 15:20N 42°04' E 005°22'2211.1
2014-Oct-31 13:20N 42°12' E 005°50'1010.9
2014-Oct-31 12:27N 42°15' E 006°02'1410.6
2014-Oct-31 11:05N 42°20' E 006°20'14610.8
2014-Oct-30 21:28N 43°08' E 009°29'1111.0
2014-Oct-30 20:30N 43°13' E 009°42'1111.2
2014-Oct-30 19:31N 43°19' E 009°55'1110.7
2014-Oct-30 18:32N 43°25' E 010°06'1010.1
2014-Oct-30 17:33N 43°32' E 010°16'3 3.1
2014-Oct-30 16:31N 43°34' E 010°19'0 0.0
2014-Oct-30 15:31N 43°34' E 010°19'0 0.0
2014-Oct-30 14:28N 43°34' E 010°19'0 0.0
2014-Oct-30 13:31N 43°34' E 010°19'0 0.0
2014-Oct-30 12:31N 43°34' E 010°19'0 0.0
2014-Oct-30 11:31N 43°34' E 010°19'0 0.0
2014-Oct-30 10:31N 43°34' E 010°19'0 0.0
2014-Oct-30 09:25N 43°34' E 010°19'0 0.0
2014-Oct-30 08:31N 43°34' E 010°19'0 0.0
2014-Oct-30 07:31N 43°34' E 010°19'0 0.0
2014-Oct-30 06:31N 43°34' E 010°19'0 0.0
2014-Oct-30 05:31N 43°34' E 010°19'0 0.0
2014-Oct-30 04:28N 43°34' E 010°19'0 0.0
2014-Oct-30 03:31N 43°34' E 010°19'0 0.0
2014-Oct-30 02:31N 43°34' E 010°19'0 0.0
2014-Oct-30 01:31N 43°34' E 010°19'0 0.0
2014-Oct-30 00:31N 43°34' E 010°19'0 0.0
2014-Oct-29 23:31N 43°34' E 010°19'0 0.0
2014-Oct-29 22:31N 43°34' E 010°19'0 0.0
2014-Oct-29 21:31N 43°34' E 010°19'0 0.0
2014-Oct-29 20:25N 43°34' E 010°19'0 0.0
2014-Oct-29 19:31N 43°34' E 010°19'0 0.0
2014-Oct-29 18:31N 43°34' E 010°19'0 0.0
2014-Oct-29 17:31N 43°34' E 010°19'0 0.0
2014-Oct-29 16:28N 43°34' E 010°19'0 0.0
2014-Oct-29 15:31N 43°34' E 010°19'0 0.0
2014-Oct-29 14:28N 43°34' E 010°19'0 0.0
2014-Oct-29 13:31N 43°34' E 010°19'0 0.0
2014-Oct-29 12:28N 43°34' E 010°19'0 0.0
2014-Oct-29 11:33N 43°34' E 010°19'0 0.0
2014-Oct-29 10:33N 43°34' E 010°19'0 0.0
2014-Oct-29 09:33N 43°34' E 010°19'0 0.0
2014-Oct-29 08:33N 43°34' E 010°19'0 0.0
2014-Oct-29 07:33N 43°34' E 010°19'0 0.0
2014-Oct-29 06:33N 43°34' E 010°19'0 0.0
2014-Oct-29 05:33N 43°34' E 010°19'4 3.8
2014-Oct-29 04:33N 43°31' E 010°16'2 1.8
2014-Oct-29 03:33N 43°30' E 010°14'7 6.8
2014-Oct-29 02:33N 43°26' E 010°07'10 9.7
2014-Oct-29 01:33N 43°20' E 009°57'10 9.8
2014-Oct-29 00:33N 43°15' E 009°45'367 9.9
2014-Oct-27 11:33N 39°18' E 003°32'1110.7
2014-Oct-27 10:33N 39°12' E 003°21'9 8.7
2014-Oct-27 09:33N 39°07' E 003°11'10 9.8
2014-Oct-27 08:33N 39°01' E 003°01'10 9.8
2014-Oct-27 07:33N 38°55' E 002°51'10 9.8
2014-Oct-27 06:33N 38°49' E 002°41'2010.2
2014-Oct-27 04:33N 38°38' E 002°19'3010.1
2014-Oct-27 01:33N 38°22' E 001°46'1010.2
2014-Oct-27 00:33N 38°17' E 001°35'1010.3
2014-Oct-26 23:33N 38°11' E 001°24'1110.6
2014-Oct-26 22:33N 38°06' E 001°13'1110.5
2014-Oct-26 21:33N 37°60' E 001°01'1110.4
2014-Oct-26 20:30N 37°54' E 000°50'30 9.9
2014-Oct-26 17:31N 37°38' E 000°18'9 9.7
2014-Oct-26 16:33N 37°33' E 000°08'10 9.6
2014-Oct-26 15:32N 37°28' W 000°02'9 9.6
2014-Oct-26 14:33N 37°23' W 000°12'14 9.6
2014-Oct-26 13:06N 37°16' W 000°27'5 9.4
2014-Oct-26 12:31N 37°13' W 000°33'10 9.5
2014-Oct-26 11:28N 37°07' W 000°43'231 9.9
2014-Oct-25 12:16N 35°55' W 005°16'3 3.7
2014-Oct-25 11:33N 35°54' W 005°19'0 0.0
2014-Oct-25 10:33N 35°54' W 005°19'0 0.0
2014-Oct-25 09:33N 35°54' W 005°19'0 0.0
2014-Oct-25 08:33N 35°54' W 005°19'0 0.0
2014-Oct-25 07:33N 35°54' W 005°19'0 0.0
2014-Oct-25 06:33N 35°54' W 005°19'1 0.7
2014-Oct-25 05:33N 35°54' W 005°19'2 2.0
2014-Oct-25 04:34N 35°56' W 005°20'101 8.4
2014-Oct-24 16:30N 36°09' W 007°25'63 8.6
2014-Oct-24 09:05N 36°25' W 008°41'5 8.8
2014-Oct-24 08:31N 36°27' W 008°47'9 8.8
2014-Oct-24 07:33N 36°29' W 008°57'12 8.9
2014-Oct-24 06:15N 36°32' W 009°11'25 9.3
2014-Oct-24 03:33N 36°49' W 009°34'10 9.4
2014-Oct-24 02:32N 36°58' W 009°37'4 4.1
2014-Oct-24 01:33N 37°02' W 009°38'1 0.5
2014-Oct-24 00:33N 37°02' W 009°38'1 0.5
2014-Oct-23 23:31N 37°03' W 009°38'1 0.6
2014-Oct-23 22:18N 37°03' W 009°37'5 4.8
2014-Oct-23 21:15N 37°08' W 009°39'710.1
2014-Oct-23 20:33N 37°15' W 009°41'1210.1
2014-Oct-23 19:24N 37°27' W 009°44'910.2
2014-Oct-23 18:33N 37°35' W 009°46'1010.5
2014-Oct-23 17:33N 37°45' W 009°49'1010.4
2014-Oct-23 16:33N 37°55' W 009°53'1010.2
2014-Oct-23 15:33N 38°05' W 009°55'1110.0
2014-Oct-23 14:26N 38°16' W 009°58'1910.0
2014-Oct-23 12:33N 38°35' W 010°03'1110.3
2014-Oct-23 11:32N 38°45' W 010°05'1210.2
2014-Oct-23 10:24N 38°57' W 010°04'1310.4
2014-Oct-23 09:06N 39°10' W 009°60'610.4
2014-Oct-23 08:33N 39°15' W 009°58'  

Dump ship's entire track history